Cascade Locks, OR

2:42 AM PDT on April 24, 2017 (GMT -0700)
Parkdale West | | Change Station

Elev 1473 ft 45.54 °N, 121.62 °W | Updated 2 seconds ago

Rain
Rain
40.6 °F
Feels Like 40.6 °F
N
0.0
Wind Variable Wind from SW
Gusts 0.0 mph

Today
High -- | Low -- °F
--% Chance of Precip.
Yesterday
High -- | Low -- °F
Precip. -- in
Pressure 29.81 in
Visibility 8.0 miles
Clouds Overcast 4100 ft
Dew Point 39.6 °F
Humidity 96%
Rainfall 0.04 in
Snow Depth Not available.
6:05 AM 8:06 PM
Waning Crescent, 6% visible
METAR KTTD 240853Z AUTO 16005KT 8SM -RA OVC041 08/07 A2981 RMK AO2 SLP095 P0005 60011 T00830067 58015
Pressure 29.81 in
Visibility 8.0 miles
Clouds Overcast 4100 ft
Dew Point 39.6 °F
Humidity 96%
Rainfall 0.04 in
Snow Depth Not available.
6:05 AM 8:06 PM
Waning Crescent, 6% visible
METAR KTTD 240853Z AUTO 16005KT 8SM -RA OVC041 08/07 A2981 RMK AO2 SLP095 P0005 60011 T00830067 58015

Get Severe Weather Alerts

Thanks for signing up!

Be on the lookout for a verification email in your inbox.

You'll start receiving the daily forecast at 8 AM.

×

10-Day Weather Forecast

Almanac

Astronomy

Apr. 24, 2017 Rise Set
Actual Time
Civil Twilight
Nautical Twilight
Astronomical Twilight
Moon
Length of Visible Light
Length of Day
Tomorrow will be .
, % of the Moon is Illuminated

Today's Extremes

State Highs State Lows

Community

WunderPhotos

WunderBlog® & News

Nearby

Air Quality

  Air Quality AQ Index Pollutant
Not available.

Snow Depth

Station Depth Elevation

Earthquake Activity

City Distance Mag. Time & Date
Minimum magnitude displayed is 2.5.

Coastal Water Temperatures

Place Temperature

Stations

Nearby Weather Stations

Station Location Temp. Windchill Dew Point Humidity Wind Precip. Elev Updated Type
                   

Watches & Warnings

There are currently no watches in effect.